KEKY

Bessemer Airport

Bessemer, Alabama, USA
METAR KEKY 151856Z AUTO 33005KT 10SM CLR 03/M04 A3018 RMK AO2 SLP243 T00331044
Observed Flight Rules
Dec-15 @ 18:56 UTC (49 minutes ago) Visual Flight Rules
Wind Visibility Clouds
330° at 5 knots 10 miles
  • Clear skies
Temperatures Readings
Current 3°C / 37°F
Dewpoint -4°C / 25°F
Humidity 60%
Altimeter 30.18" Hg
Pressure 1024.3 hPa
Elevation 213
METAR KEKY 151856Z AUTO 33005KT 10SM CLR 03/M04 A3018 RMK AO2 SLP243 T00331044
Observed Flight Rules
Dec-15 @ 18:56 UTC
(49 minutes ago)
VFR
Wind Visibility
330° at 5 knots 10 miles
Clouds
  • Clear skies
Temperature Dewpoint
3°C / 37°F -4°C / 25°F
Humidity Altimeter Pressure
60% 30.18" Hg 1024.3 hPa